Time;durP1;ratioP1;P1;durP2;ratioP2;P2;SDS_P1;SDS_P2;PMS_P1;PMS_P2;Temp;Humidity;BMP_temperature;BMP_pressure;BME280_temperature;BME280_humidity;BME280_pressure;Samples;Min_cycle;Max_cycle;Signal;HPM_P1;HPM_P2
2023/06/03 00:01:56;;;;;;;17.27;10.18;;;;;;;14.71;75.43;101959.22;5052681;28;20020;-59
2023/06/03 00:04:29;;;;;;;16.70;10.13;;;;;;;14.74;74.87;101954.50;5052280;28;20041;-59
2023/06/03 00:06:55;;;;;;;17.02;9.98;;;;;;;14.65;75.00;101954.22;5054389;28;20101;-59
2023/06/03 00:09:21;;;;;;;16.10;10.55;;;;;;;14.69;74.98;101947.72;5054086;28;20029;-59
2023/06/03 00:11:46;;;;;;;16.67;11.27;;;;;;;14.54;75.28;101957.56;5053856;28;20066;-59
2023/06/03 00:14:12;;;;;;;14.30;10.15;;;;;;;14.66;74.86;101951.44;5051865;28;20456;-58
2023/06/03 00:16:37;;;;;;;16.83;9.95;;;;;;;14.52;75.11;101954.97;5052311;28;20107;-58
2023/06/03 00:19:02;;;;;;;16.80;10.13;;;;;;;14.34;75.88;101952.56;5053697;28;20458;-59
2023/06/03 00:21:28;;;;;;;13.43;9.57;;;;;;;14.40;75.63;101954.84;5053809;28;20029;-59
2023/06/03 00:23:56;;;;;;;18.70;10.65;;;;;;;14.49;75.21;101959.63;5051998;28;20060;-59
2023/06/03 00:26:25;;;;;;;15.77;11.50;;;;;;;14.36;75.56;101958.69;5054360;28;20476;-59
2023/06/03 00:28:51;;;;;;;22.77;11.07;;;;;;;14.26;75.89;101961.88;5059782;28;20388;-59
2023/06/03 00:31:16;;;;;;;15.00;10.45;;;;;;;14.24;75.41;101963.81;5059596;28;20038;-59
2023/06/03 00:33:44;;;;;;;14.82;10.75;;;;;;;14.13;75.88;101960.91;5063485;28;20028;-59
2023/06/03 00:36:09;;;;;;;18.70;10.40;;;;;;;14.11;75.58;101961.97;5052078;28;20040;-59
2023/06/03 00:38:35;;;;;;;19.23;10.80;;;;;;;14.29;74.75;101956.38;5052107;28;20025;-59
2023/06/03 00:41:00;;;;;;;19.77;11.30;;;;;;;14.23;74.75;101958.53;5053388;28;20440;-59
2023/06/03 00:43:26;;;;;;;15.77;11.63;;;;;;;14.11;74.80;101961.97;5053115;28;20098;-59
2023/06/03 00:45:51;;;;;;;19.08;10.80;;;;;;;14.04;74.93;101948.09;5052529;28;20049;-59
2023/06/03 00:48:17;;;;;;;16.70;10.60;;;;;;;14.02;75.69;101955.34;5053147;28;20029;-59
2023/06/03 00:50:43;;;;;;;19.95;11.48;;;;;;;14.11;74.56;101965.50;5053085;28;20056;-59
2023/06/03 00:53:09;;;;;;;19.02;12.20;;;;;;;14.07;75.09;101963.97;5052186;28;20143;-59
2023/06/03 00:55:34;;;;;;;16.40;10.75;;;;;;;14.09;74.29;101962.06;5052688;28;20523;-59
2023/06/03 00:58:01;;;;;;;17.27;10.80;;;;;;;14.14;74.00;101957.28;5051870;28;20029;-58
2023/06/03 01:00:26;;;;;;;19.95;10.88;;;;;;;14.02;73.85;101960.69;5052467;28;20025;-59
2023/06/03 01:02:52;;;;;;;20.75;10.18;;;;;;;13.94;74.29;101954.94;5053023;28;20031;-59
2023/06/03 01:05:18;;;;;;;18.20;10.55;;;;;;;14.03;74.15;101957.06;5052153;28;20032;-59
2023/06/03 01:07:56;;;;;;;16.80;10.82;;;;;;;14.01;74.11;101959.84;5052970;28;20017;-59
2023/06/03 01:10:36;;;;;;;19.67;10.82;;;;;;;13.95;73.84;101960.22;5052259;28;20484;-58
2023/06/03 01:13:14;;;;;;;17.50;10.35;;;;;;;13.99;73.79;101956.38;5033147;28;20122;-59
2023/06/03 01:15:43;;;;;;;19.63;10.85;;;;;;;14.00;73.34;101965.28;5057759;28;20073;-58
2023/06/03 01:18:11;;;;;;;16.70;10.85;;;;;;;13.93;73.45;101963.94;5068753;28;20055;-59
2023/06/03 01:20:38;;;;;;;18.58;11.18;;;;;;;13.70;74.05;101947.41;5050249;28;20029;-59
2023/06/03 01:23:28;;;;;;;15.35;11.18;;;;;;;13.98;73.07;101957.34;5051529;28;20125;-59
2023/06/03 01:25:57;;;;;;;13.40;10.23;;;;;;;13.74;73.59;101965.03;5037399;28;20541;-59
2023/06/03 01:28:25;;;;;;;16.17;11.52;;;;;;;13.77;73.44;101956.81;5066103;28;20082;-59
2023/06/03 01:30:51;;;;;;;18.95;10.70;;;;;;;13.69;73.88;101956.41;5061042;28;20388;-59
2023/06/03 01:33:19;;;;;;;16.50;10.98;;;;;;;13.74;73.59;101962.34;5052433;28;20028;-59
2023/06/03 01:35:46;;;;;;;15.98;10.18;;;;;;;13.74;73.65;101958.81;5055717;28;20036;-59
2023/06/03 01:38:12;;;;;;;18.90;10.85;;;;;;;13.68;73.56;101953.78;5051642;28;20119;-59
2023/06/03 01:40:38;;;;;;;16.00;11.13;;;;;;;13.63;73.64;101948.75;5059577;28;20036;-58
2023/06/03 01:43:04;;;;;;;17.67;10.60;;;;;;;13.52;74.28;101962.72;5055656;28;20081;-59
2023/06/03 01:45:30;;;;;;;18.60;11.10;;;;;;;13.56;73.98;101947.34;5052897;28;20430;-59
2023/06/03 01:47:56;;;;;;;16.55;11.25;;;;;;;13.42;74.42;101950.84;5063814;28;20024;-59
2023/06/03 01:50:22;;;;;;;24.90;11.85;;;;;;;13.28;74.64;101954.28;5070820;28;20474;-59
2023/06/03 01:52:47;;;;;;;15.23;9.75;;;;;;;13.45;74.42;101956.00;5060944;28;20029;-59
2023/06/03 01:55:13;;;;;;;18.42;10.57;;;;;;;13.32;74.29;101950.47;5055814;28;20024;-59
2023/06/03 01:57:38;;;;;;;16.15;10.80;;;;;;;13.34;74.23;101955.75;5059526;28;20025;-59
2023/06/03 02:00:07;;;;;;;20.73;11.43;;;;;;;13.35;74.66;101952.13;5069809;28;20033;-59
2023/06/03 02:02:33;;;;;;;22.10;11.13;;;;;;;13.26;75.04;101950.84;5063888;28;20043;-59
2023/06/03 02:04:58;;;;;;;18.50;11.18;;;;;;;13.30;74.69;101951.53;5051625;28;20287;-59
2023/06/03 02:07:25;;;;;;;18.27;10.60;;;;;;;13.28;74.62;101954.28;5057640;28;20021;-59
2023/06/03 02:09:52;;;;;;;15.57;9.98;;;;;;;13.28;74.73;101950.75;5071845;28;20028;-59
2023/06/03 02:12:19;;;;;;;19.05;10.95;;;;;;;13.06;75.32;101965.31;5062141;28;20028;-59
2023/06/03 02:14:44;;;;;;;18.48;10.55;;;;;;;13.00;75.75;101952.28;5062421;28;20025;-59
2023/06/03 02:17:15;;;;;;;17.13;10.50;;;;;;;12.97;75.92;101955.13;5054717;28;20045;-58
2023/06/03 02:19:40;;;;;;;18.52;10.63;;;;;;;13.00;75.45;101932.72;5071949;28;20028;-59
2023/06/03 02:22:06;;;;;;;17.25;10.32;;;;;;;13.22;74.52;101951.06;5064734;28;20542;-58
2023/06/03 02:24:32;;;;;;;15.57;10.60;;;;;;;13.09;74.97;101943.75;5050530;28;20021;-59
2023/06/03 02:27:00;;;;;;;14.65;9.82;;;;;;;13.03;75.10;101946.78;5049546;28;20020;-59
2023/06/03 02:29:26;;;;;;;14.43;9.77;;;;;;;13.17;74.48;101948.66;5050205;28;20040;-59
2023/06/03 02:31:53;;;;;;;16.17;9.45;;;;;;;13.25;74.12;101953.56;5051593;28;20091;-59
2023/06/03 02:34:19;;;;;;;18.15;10.38;;;;;;;13.19;74.65;101949.44;5067515;28;20023;-58
2023/06/03 02:36:46;;;;;;;15.60;10.00;;;;;;;13.13;74.26;101950.66;5051619;28;20040;-59
2023/06/03 02:39:12;;;;;;;17.38;9.43;;;;;;;13.24;74.31;101949.19;5050190;28;20572;-59
2023/06/03 02:41:39;;;;;;;15.48;10.05;;;;;;;13.15;74.26;101954.09;5051549;28;20074;-59
2023/06/03 02:44:04;;;;;;;12.60;9.20;;;;;;;13.23;73.71;101950.13;5050967;28;20371;-59
2023/06/03 02:46:30;;;;;;;14.70;9.80;;;;;;;13.20;73.85;101953.81;5051131;28;20100;-58
2023/06/03 02:48:56;;;;;;;13.32;9.75;;;;;;;13.23;73.54;101952.78;5051444;28;20075;-59
2023/06/03 02:51:22;;;;;;;19.80;10.10;;;;;;;13.11;73.98;101957.00;5051265;28;20365;-59
2023/06/03 02:53:48;;;;;;;15.48;9.35;;;;;;;13.08;73.85;101946.50;5050029;28;20050;-59
2023/06/03 02:56:13;;;;;;;21.30;11.20;;;;;;;13.06;74.36;101954.63;5049962;28;20025;-59
2023/06/03 02:58:42;;;;;;;13.57;9.88;;;;;;;12.91;74.88;101955.44;5052762;28;20021;-59
2023/06/03 03:01:07;;;;;;;12.13;9.60;;;;;;;13.09;74.28;101957.13;5051094;28;20578;-59
2023/06/03 03:03:36;;;;;;;11.50;9.52;;;;;;;12.83;75.29;101950.53;5051356;28;20120;-59
2023/06/03 03:06:06;;;;;;;15.68;10.00;;;;;;;12.81;75.27;101959.56;5050917;28;20040;-58
2023/06/03 03:08:34;;;;;;;15.73;9.60;;;;;;;12.90;74.60;101948.38;5051493;28;20021;-58
2023/06/03 03:11:00;;;;;;;13.60;9.80;;;;;;;13.05;74.60;101952.88;5050979;28;20025;-59
2023/06/03 03:13:25;;;;;;;14.02;9.70;;;;;;;13.00;74.50;101946.06;5064032;28;20486;-58
2023/06/03 03:15:50;;;;;;;12.68;10.02;;;;;;;12.96;74.45;101953.38;5054820;28;20032;-59
2023/06/03 03:18:16;;;;;;;12.32;10.40;;;;;;;12.76;74.90;101964.28;5073603;28;20037;-58
2023/06/03 03:20:42;;;;;;;12.48;10.45;;;;;;;12.87;74.49;101964.59;5053221;28;20033;-59
2023/06/03 03:23:07;;;;;;;11.38;10.13;;;;;;;12.93;75.05;101957.09;5059511;28;20021;-57
2023/06/03 03:25:36;;;;;;;14.95;10.18;;;;;;;12.78;75.43;101967.75;5055427;28;20028;-59
2023/06/03 03:28:01;;;;;;;16.35;9.73;;;;;;;12.61;76.13;101958.84;5069887;28;20032;-59
2023/06/03 03:30:27;;;;;;;16.70;10.50;;;;;;;12.54;76.19;101970.81;5061043;28;20017;-58
2023/06/03 03:32:58;;;;;;;16.38;10.45;;;;;;;12.72;75.75;101964.47;5056367;28;20151;-59
2023/06/03 03:35:25;;;;;;;13.65;10.10;;;;;;;12.67;75.49;101971.84;5061533;28;20037;-59
2023/06/03 03:38:02;;;;;;;22.48;11.30;;;;;;;12.63;76.05;101967.63;5068031;28;20037;-59
2023/06/03 03:40:29;;;;;;;14.10;10.15;;;;;;;12.77;75.49;101968.72;5053972;28;20029;-59
2023/06/03 03:42:58;;;;;;;19.42;10.68;;;;;;;12.71;75.66;101977.91;5053416;28;20060;-58
2023/06/03 03:45:29;;;;;;;12.38;10.75;;;;;;;12.72;75.81;101982.28;5052611;28;20115;-59
2023/06/03 03:48:00;;;;;;;15.73;10.52;;;;;;;12.69;75.59;101983.31;5053431;28;20028;-58
2023/06/03 03:50:48;;;;;;;12.75;10.05;;;;;;;12.67;75.77;101971.84;5070817;28;20024;-58
2023/06/03 03:53:17;;;;;;;12.45;10.13;;;;;;;12.59;76.22;101965.19;5051800;28;20024;-58
2023/06/03 03:55:44;;;;;;;;;;;;;;;12.79;74.40;101978.34;5065644;28;20607;-58
2023/06/03 03:58:42;;;;;;;17.73;9.68;;;;;;;12.63;75.50;101977.44;5066038;28;19917;-58
2023/06/03 04:01:18;;;;;;;13.02;9.98;;;;;;;12.56;76.38;101974.25;5059021;28;20024;-58
2023/06/03 04:03:48;;;;;;;13.73;10.27;;;;;;;12.53;76.12;101966.41;5068433;28;20176;-58
2023/06/03 04:06:21;;;;;;;;;;;;;;;12.79;74.74;101982.81;5054781;28;20460;-59
2023/06/03 04:08:47;;;;;;;13.57;9.60;;;;;;;12.65;75.54;101967.56;5052660;28;19960;-58
2023/06/03 04:11:41;;;;;;;13.65;10.30;;;;;;;12.55;76.44;101977.00;5053309;28;20535;-60
2023/06/03 04:14:08;;;;;;;15.05;11.30;;;;;;;12.49;76.61;101971.03;5046666;28;20052;-58
2023/06/03 04:16:41;;;;;;;13.95;10.05;;;;;;;12.48;76.41;101973.78;5053449;28;20040;-58
2023/06/03 04:19:14;;;;;;;15.30;11.57;;;;;;;12.41;76.95;101972.38;5053615;28;20075;-58
2023/06/03 04:21:40;;;;;;;18.92;10.77;;;;;;;12.50;76.50;101974.59;5052743;28;20032;-58
2023/06/03 04:24:05;;;;;;;14.02;10.15;;;;;;;12.54;76.12;101981.47;5051876;28;20029;-58
2023/06/03 04:26:31;;;;;;;13.38;9.68;;;;;;;12.72;75.54;101982.28;5057527;28;20020;-58
2023/06/03 04:28:56;;;;;;;16.17;10.68;;;;;;;12.64;75.55;101995.19;5064365;28;20040;-59
2023/06/03 04:31:21;;;;;;;15.48;9.80;;;;;;;12.63;75.63;101980.97;5071065;28;20107;-58
2023/06/03 04:33:48;;;;;;;14.73;9.57;;;;;;;12.77;74.90;101982.91;5065649;28;20032;-58
2023/06/03 04:36:14;;;;;;;24.23;10.02;;;;;;;12.75;74.71;101978.59;5070182;28;20051;-59
2023/06/03 04:38:41;;;;;;;15.35;10.25;;;;;;;12.65;75.08;101989.78;5053305;28;20471;-59
2023/06/03 04:41:06;;;;;;;14.50;9.30;;;;;;;12.65;75.26;101980.91;5069239;28;20025;-58
2023/06/03 04:43:33;;;;;;;11.90;9.52;;;;;;;12.74;74.55;101991.09;5066555;28;20048;-58
2023/06/03 04:46:00;;;;;;;11.25;8.70;;;;;;;12.79;74.40;101988.16;5052699;28;20048;-58
2023/06/03 04:48:26;;;;;;;10.95;9.43;;;;;;;12.87;73.92;101984.13;5053043;28;20044;-59
2023/06/03 04:50:52;;;;;;;13.85;9.30;;;;;;;12.95;73.70;101984.56;5051061;28;20060;-59
2023/06/03 04:53:18;;;;;;;12.50;9.50;;;;;;;12.96;73.16;101990.78;5052600;28;20098;-58
2023/06/03 04:55:44;;;;;;;13.93;9.15;;;;;;;12.97;73.72;101989.84;5051748;28;20361;-59
2023/06/03 04:58:12;;;;;;;11.90;9.63;;;;;;;12.94;73.76;101998.00;5058196;28;20031;-59
2023/06/03 05:00:40;;;;;;;11.38;9.60;;;;;;;13.00;73.60;101994.13;5071223;28;20032;-59
2023/06/03 05:03:10;;;;;;;17.33;9.13;;;;;;;12.97;73.04;101992.53;5067169;28;20024;-59
2023/06/03 05:05:41;;;;;;;11.32;9.25;;;;;;;13.07;73.20;101992.88;5051652;28;20151;-59
2023/06/03 05:08:07;;;;;;;14.20;8.95;;;;;;;13.17;72.33;101994.91;5051436;28;20017;-59
2023/06/03 05:10:34;;;;;;;14.30;8.88;;;;;;;13.21;70.93;101990.28;5052429;28;20060;-59
2023/06/03 05:12:59;;;;;;;14.32;9.23;;;;;;;13.21;71.79;101989.41;5051496;28;20057;-59
2023/06/03 05:15:25;;;;;;;12.60;8.98;;;;;;;13.23;71.82;101999.06;5052000;28;20114;-58
2023/06/03 05:17:51;;;;;;;12.77;8.70;;;;;;;13.32;70.36;101990.56;5052759;28;20029;-58
2023/06/03 05:20:17;;;;;;;11.02;8.43;;;;;;;13.29;70.93;101993.41;5051405;28;20476;-59
2023/06/03 05:22:42;;;;;;;9.70;8.32;;;;;;;13.44;70.75;101994.34;5051427;28;20024;-59
2023/06/03 05:25:08;;;;;;;12.43;8.07;;;;;;;13.48;69.92;101987.03;5052594;28;20415;-59
2023/06/03 05:27:34;;;;;;;12.65;8.07;;;;;;;13.54;70.39;101995.56;5052317;28;20032;-58
2023/06/03 05:29:59;;;;;;;11.05;8.02;;;;;;;13.62;68.87;101993.31;5051933;28;20048;-59
2023/06/03 05:32:25;;;;;;;10.20;7.88;;;;;;;13.65;67.73;101992.28;5052440;28;20032;-59
2023/06/03 05:34:50;;;;;;;10.90;7.65;;;;;;;13.72;67.55;101996.31;5052530;28;20025;-59
2023/06/03 05:37:16;;;;;;;12.55;7.57;;;;;;;13.77;67.13;101999.59;5051115;28;20051;-59
2023/06/03 05:39:42;;;;;;;9.05;7.07;;;;;;;13.85;67.41;102000.03;5052487;28;20075;-58
2023/06/03 05:42:08;;;;;;;10.32;7.38;;;;;;;13.93;66.61;101994.19;5052301;28;20528;-58
2023/06/03 05:44:33;;;;;;;10.57;6.57;;;;;;;13.99;65.56;101992.97;5051811;28;20112;-59
2023/06/03 05:46:58;;;;;;;10.15;6.45;;;;;;;14.01;65.16;101997.28;5051969;28;20103;-59
2023/06/03 05:49:24;;;;;;;9.88;6.60;;;;;;;14.12;65.71;101991.31;5050836;28;20071;-59
2023/06/03 05:51:50;;;;;;;9.88;6.82;;;;;;;14.20;65.34;101991.69;5052160;28;20056;-59
2023/06/03 05:54:15;;;;;;;9.40;7.10;;;;;;;14.27;64.18;101987.72;5052034;28;20025;-59
2023/06/03 05:56:44;;;;;;;8.45;6.63;;;;;;;14.32;62.48;101988.31;5050651;28;20037;-59
2023/06/03 05:59:09;;;;;;;8.85;6.72;;;;;;;14.47;63.30;101990.97;5050479;28;20029;-59
2023/06/03 06:01:37;;;;;;;13.85;7.35;;;;;;;14.52;63.06;101996.94;5050991;28;20021;-59
2023/06/03 06:04:02;;;;;;;11.63;7.22;;;;;;;14.66;62.70;101998.78;5051925;28;20672;-59
2023/06/03 06:06:28;;;;;;;6.95;6.28;;;;;;;14.69;60.79;102006.63;5051261;28;20024;-59
2023/06/03 06:08:53;;;;;;;9.85;7.18;;;;;;;14.72;61.29;101995.72;5050564;28;20104;-59
2023/06/03 06:11:18;;;;;;;9.07;6.88;;;;;;;14.81;60.45;102002.34;5050329;28;20071;-59
2023/06/03 06:13:44;;;;;;;7.30;5.60;;;;;;;14.89;59.14;101998.22;5050517;28;20056;-59
2023/06/03 06:16:09;;;;;;;9.50;6.20;;;;;;;14.99;59.29;101999.34;5049528;28;20090;-58
2023/06/03 06:18:35;;;;;;;11.65;6.25;;;;;;;15.07;58.91;101998.88;5051618;28;20098;-59
2023/06/03 06:21:00;;;;;;;8.80;5.82;;;;;;;15.15;59.59;102001.06;5051866;28;20021;-59
2023/06/03 06:23:28;;;;;;;8.43;6.07;;;;;;;15.28;59.19;102009.19;5051387;28;20033;-59
2023/06/03 06:25:55;;;;;;;6.82;5.90;;;;;;;15.34;57.81;102006.09;5049947;28;20079;-59
2023/06/03 06:28:26;;;;;;;10.48;6.05;;;;;;;15.32;58.40;102006.19;5051653;28;20029;-59
2023/06/03 06:31:00;;;;;;;9.15;5.60;;;;;;;15.55;56.98;102009.19;5049906;28;20025;-58
2023/06/03 06:33:27;;;;;;;9.52;4.95;;;;;;;15.62;56.29;102015.91;5050366;28;20028;-59
2023/06/03 06:35:53;;;;;;;13.05;5.75;;;;;;;15.63;55.34;101988.13;5050933;28;20601;-58
2023/06/03 06:38:18;;;;;;;8.68;5.85;;;;;;;15.82;54.69;102009.22;5050311;28;20112;-59
2023/06/03 06:40:45;;;;;;;10.07;5.25;;;;;;;15.93;53.56;102008.53;5050032;28;20044;-59
2023/06/03 06:43:16;;;;;;;6.57;5.68;;;;;;;16.01;54.02;102023.16;5051713;28;20086;-59
2023/06/03 06:45:42;;;;;;;6.75;5.10;;;;;;;16.07;53.03;102014.69;5049589;28;20028;-59
2023/06/03 06:48:12;;;;;;;8.98;5.50;;;;;;;16.11;53.23;102016.19;5050238;28;20029;-59
2023/06/03 06:50:44;;;;;;;10.07;5.00;;;;;;;16.22;52.96;102019.97;5055617;28;20025;-58
2023/06/03 06:53:09;;;;;;;10.20;5.38;;;;;;;16.39;52.95;102021.50;5055548;28;20021;-59
2023/06/03 06:55:55;;;;;;;7.03;4.82;;;;;;;16.43;53.50;102013.13;5055123;28;20029;-59
2023/06/03 06:58:22;;;;;;;6.95;5.18;;;;;;;16.66;52.34;102016.03;5037995;28;20108;-59
2023/06/03 07:00:49;;;;;;;8.48;4.82;;;;;;;16.64;50.16;102020.66;5054935;28;20529;-59
2023/06/03 07:03:16;;;;;;;6.75;5.20;;;;;;;16.65;49.61;102022.34;5055113;28;20025;-59
2023/06/03 07:05:42;;;;;;;6.13;4.63;;;;;;;16.78;50.12;102021.44;5054874;28;20067;-59
2023/06/03 07:08:08;;;;;;;5.68;4.63;;;;;;;16.93;48.93;102018.63;5055322;28;20096;-59
2023/06/03 07:10:35;;;;;;;7.00;5.07;;;;;;;16.94;48.58;102017.66;5055151;28;20056;-59
2023/06/03 07:13:02;;;;;;;8.23;5.00;;;;;;;16.84;47.58;102013.91;5053880;28;20055;-59
2023/06/03 07:15:28;;;;;;;10.30;4.60;;;;;;;17.09;47.85;102011.19;5054226;28;20098;-58
2023/06/03 07:17:58;;;;;;;7.82;4.43;;;;;;;17.10;46.48;102014.75;5054802;28;20553;-59
2023/06/03 07:20:38;;;;;;;8.70;4.40;;;;;;;17.22;48.12;102003.94;5054614;28;20028;-59
2023/06/03 07:23:11;;;;;;;10.98;4.90;;;;;;;17.34;47.77;101999.50;5054891;28;20017;-59
2023/06/03 07:25:44;;;;;;;5.60;3.95;;;;;;;17.52;46.94;102005.38;5054245;28;20393;-59
2023/06/03 07:28:11;;;;;;;10.60;4.40;;;;;;;17.68;45.99;102005.09;5054995;28;20075;-59
2023/06/03 07:30:39;;;;;;;8.15;4.28;;;;;;;17.78;45.61;102005.28;5052860;28;20028;-59
2023/06/03 07:33:06;;;;;;;4.72;3.70;;;;;;;17.83;44.85;102016.59;5053303;28;20039;-59
2023/06/03 07:35:35;;;;;;;6.80;4.00;;;;;;;17.96;44.01;102013.81;5052995;28;20037;-59
2023/06/03 07:38:00;;;;;;;5.85;3.92;;;;;;;17.86;43.12;102009.13;5053524;28;20602;-59
2023/06/03 07:40:46;;;;;;;6.10;3.70;;;;;;;17.97;44.08;102010.13;5053150;28;20111;-59
2023/06/03 07:43:12;;;;;;;6.95;4.40;;;;;;;17.89;43.34;102008.91;5054342;28;20040;-59
2023/06/03 07:45:37;;;;;;;7.30;4.05;;;;;;;17.95;43.16;102002.19;5052831;28;20175;-59
2023/06/03 07:48:13;;;;;;;6.95;3.97;;;;;;;18.00;42.68;102013.47;5053228;28;20098;-59
2023/06/03 07:50:38;;;;;;;9.35;3.20;;;;;;;18.11;43.20;102009.94;5053230;28;20020;-59
2023/06/03 07:53:05;;;;;;;6.43;3.83;;;;;;;18.21;40.73;102015.50;5054471;28;20241;-59
2023/06/03 07:55:39;;;;;;;7.35;3.70;;;;;;;18.28;40.66;102022.13;5053835;28;20400;-59
2023/06/03 07:58:05;;;;;;;5.70;3.90;;;;;;;18.37;39.65;102014.19;5054399;28;20099;-59
2023/06/03 08:00:31;;;;;;;5.22;3.65;;;;;;;18.36;38.91;102017.88;5035036;28;20025;-59
2023/06/03 08:02:56;;;;;;;7.63;3.97;;;;;;;18.52;39.88;102019.38;5052960;28;20028;-59
2023/06/03 08:05:31;;;;;;;6.75;3.55;;;;;;;18.70;39.95;102020.59;5053618;28;20029;-60
2023/06/03 08:07:57;;;;;;;4.85;3.20;;;;;;;18.74;38.16;102018.59;5052914;28;20102;-59
2023/06/03 08:10:24;;;;;;;6.80;3.35;;;;;;;18.89;38.64;102013.81;5053722;28;20064;-59
2023/06/03 08:12:52;;;;;;;5.35;2.80;;;;;;;18.98;37.40;102029.25;5054003;28;20074;-59
2023/06/03 08:15:26;;;;;;;14.75;3.60;;;;;;;18.91;36.72;102020.78;5052566;28;20029;-57
2023/06/03 08:17:51;;;;;;;6.65;2.72;;;;;;;19.03;37.63;102011.72;5052578;28;20033;-59
2023/06/03 08:20:22;;;;;;;5.53;2.70;;;;;;;19.04;37.16;102015.28;5053493;28;20381;-59
2023/06/03 08:22:48;;;;;;;4.95;2.80;;;;;;;19.17;36.00;102010.59;5052482;28;20043;-59
2023/06/03 08:25:14;;;;;;;6.80;2.83;;;;;;;19.24;35.61;102005.59;5053202;28;20458;-60
2023/06/03 08:27:39;;;;;;;9.35;3.50;;;;;;;19.28;36.30;102005.19;5053982;28;20092;-59
2023/06/03 08:30:07;;;;;;;5.47;3.30;;;;;;;19.26;35.60;102003.59;5053266;28;20119;-59
2023/06/03 08:32:34;;;;;;;14.25;3.17;;;;;;;19.27;33.94;102013.41;5052439;28;20035;-59
2023/06/03 08:34:59;;;;;;;17.15;3.58;;;;;;;19.32;34.84;102016.56;5053726;28;20108;-58
2023/06/03 08:37:25;;;;;;;6.57;2.85;;;;;;;19.31;35.98;102014.88;5052794;28;20031;-58
2023/06/03 08:39:51;;;;;;;5.15;2.60;;;;;;;19.33;33.80;102006.66;5053385;28;20048;-59
2023/06/03 08:42:22;;;;;;;5.70;2.95;;;;;;;19.48;35.25;102008.97;5052195;28;20472;-58
2023/06/03 08:45:06;;;;;;;10.07;2.80;;;;;;;19.62;34.58;102002.44;5052331;28;20033;-58
2023/06/03 08:47:36;;;;;;;7.00;3.08;;;;;;;19.59;34.48;101997.28;5053219;28;20029;-61
2023/06/03 08:50:13;;;;;;;5.80;2.50;;;;;;;19.67;33.85;102005.63;5053317;28;20484;-65
2023/06/03 08:52:40;;;;;;;6.93;2.72;;;;;;;19.85;34.23;102008.63;5053717;28;20021;-66
2023/06/03 08:55:06;;;;;;;5.25;2.80;;;;;;;19.87;34.90;101998.56;5052720;28;20108;-66
2023/06/03 08:57:37;;;;;;;8.65;2.92;;;;;;;20.15;33.79;102010.59;5051986;28;20383;-65
2023/06/03 09:00:05;;;;;;;4.80;2.67;;;;;;;20.17;33.38;102005.03;5051164;28;20508;-63
2023/06/03 09:02:32;;;;;;;5.03;2.88;;;;;;;20.19;32.69;102001.22;5053060;28;20029;-65
2023/06/03 09:05:01;;;;;;;6.72;2.72;;;;;;;20.19;32.73;101997.66;5051315;28;20029;-65
2023/06/03 09:07:28;;;;;;;7.15;3.30;;;;;;;20.38;33.21;102005.91;5051817;28;20027;-66
2023/06/03 09:09:55;;;;;;;9.38;2.53;;;;;;;20.40;32.97;102003.06;5052969;28;20025;-65
2023/06/03 09:12:20;;;;;;;5.10;2.67;;;;;;;20.34;33.12;101996.34;5052751;28;20029;-65
2023/06/03 09:14:47;;;;;;;6.07;2.80;;;;;;;20.49;32.92;102002.25;5051483;28;20029;-66
2023/06/03 09:17:12;;;;;;;9.75;2.88;;;;;;;20.39;31.92;102004.06;5052381;28;20559;-66
2023/06/03 09:19:39;;;;;;;9.85;3.40;;;;;;;20.51;33.85;102004.84;5052415;28;20108;-57
2023/06/03 09:22:05;;;;;;;11.15;3.20;;;;;;;20.59;31.01;102015.91;5052633;28;20029;-57
2023/06/03 09:24:31;;;;;;;3.03;2.50;;;;;;;20.48;30.73;102014.06;5051755;28;20448;-57
2023/06/03 09:26:57;;;;;;;10.65;2.88;;;;;;;20.54;30.91;102013.56;5052416;28;20103;-57
2023/06/03 09:29:23;;;;;;;8.15;2.90;;;;;;;20.43;31.19;102017.16;5051091;28;20060;-62
2023/06/03 09:31:48;;;;;;;3.13;2.50;;;;;;;20.41;31.59;102002.94;5052349;28;20090;-62
2023/06/03 09:34:16;;;;;;;5.97;2.50;;;;;;;20.64;30.88;102016.31;5052737;28;20045;-62
2023/06/03 09:36:47;;;;;;;10.70;2.57;;;;;;;20.56;29.89;102010.72;5052571;28;20472;-61
2023/06/03 09:39:17;;;;;;;2.88;2.53;;;;;;;20.69;31.30;102013.22;5050781;28;20379;-63
2023/06/03 09:41:44;;;;;;;6.32;2.88;;;;;;;20.80;30.39;102002.34;5052460;28;20025;-62
2023/06/03 09:44:10;;;;;;;8.13;2.72;;;;;;;20.87;28.93;102003.50;5051203;28;20036;-62
2023/06/03 09:46:36;;;;;;;6.78;2.72;;;;;;;21.00;28.43;102003.25;5053919;28;20066;-60
2023/06/03 09:49:11;;;;;;;2.75;2.50;;;;;;;20.97;29.42;102007.13;5050620;28;20036;-61
2023/06/03 09:51:48;;;;;;;5.38;2.65;;;;;;;20.99;30.33;102006.97;5052029;28;20024;-58
2023/06/03 09:54:18;;;;;;;8.48;2.88;;;;;;;21.16;30.13;102008.16;5040946;28;20024;-58
2023/06/03 09:56:45;;;;;;;5.30;2.42;;;;;;;21.15;29.85;102007.31;5067898;28;20074;-58
2023/06/03 09:59:23;;;;;;;5.50;2.40;;;;;;;21.16;29.31;102009.03;5057152;28;20033;-58
2023/06/03 10:01:50;;;;;;;4.15;2.42;;;;;;;21.36;29.55;102007.25;5050934;28;20480;-61
2023/06/03 10:04:22;;;;;;;3.55;2.30;;;;;;;21.35;28.33;102008.19;5052189;28;20525;-61
2023/06/03 10:07:09;;;;;;;3.90;2.42;;;;;;;21.33;28.30;102011.06;5050790;28;20025;-61
2023/06/03 10:09:35;;;;;;;4.10;2.35;;;;;;;21.46;28.38;102005.41;5051386;28;20031;-62
2023/06/03 10:12:02;;;;;;;4.45;3.00;;;;;;;21.51;28.16;102002.31;5051443;28;20036;-61
2023/06/03 10:14:28;;;;;;;6.95;2.80;;;;;;;21.41;26.92;101996.00;5049830;28;20040;-57
2023/06/03 10:17:10;;;;;;;7.07;2.70;;;;;;;21.43;27.32;101996.72;5051461;28;20174;-57
2023/06/03 10:19:45;;;;;;;6.65;2.40;;;;;;;21.47;27.53;101999.03;5049987;28;20063;-58
2023/06/03 10:22:13;;;;;;;3.13;2.25;;;;;;;21.46;27.82;102005.41;5050628;28;20060;-57
2023/06/03 10:24:42;;;;;;;12.35;2.72;;;;;;;21.32;26.65;102003.94;5051117;28;20391;-59
2023/06/03 10:27:12;;;;;;;5.82;2.55;;;;;;;21.38;27.84;101994.41;5051956;28;20024;-59
2023/06/03 10:29:38;;;;;;;4.22;2.60;;;;;;;21.42;26.98;101993.16;5057554;28;20056;-59
2023/06/03 10:32:09;;;;;;;6.78;2.40;;;;;;;21.38;27.20;101986.31;5051046;28;20176;-59
2023/06/03 10:34:39;;;;;;;3.42;2.30;;;;;;;21.62;27.17;101995.88;5070284;28;20163;-58
2023/06/03 10:37:05;;;;;;;4.82;2.60;;;;;;;21.63;26.70;101979.50;5065388;28;20053;-59
2023/06/03 10:39:32;;;;;;;3.47;2.63;;;;;;;21.60;27.20;101989.78;5054796;28;20035;-63
2023/06/03 10:42:05;;;;;;;3.38;2.55;;;;;;;21.71;27.43;101986.94;5064707;28;20060;-62
2023/06/03 10:44:31;;;;;;;3.70;2.58;;;;;;;21.92;27.36;102005.75;5069682;28;20077;-60
2023/06/03 10:47:14;;;;;;;6.40;2.40;;;;;;;21.93;26.81;101996.63;5070350;28;20021;-64
2023/06/03 10:49:46;;;;;;;3.60;2.17;;;;;;;22.07;26.50;101998.06;5057338;28;20044;-62
2023/06/03 10:52:48;;;;;;;3.55;2.25;;;;;;;22.07;26.26;101990.78;5051711;28;20384;-63
2023/06/03 10:55:27;;;;;;;3.65;2.40;;;;;;;21.98;26.43;101992.50;5048571;28;20033;-63
2023/06/03 10:58:00;;;;;;;3.00;2.40;;;;;;;22.21;26.42;101995.78;5049933;28;20111;-63
2023/06/03 11:00:53;;;;;;;5.18;2.40;;;;;;;22.23;26.72;101982.94;5050889;28;20700;-63
2023/06/03 11:03:21;;;;;;;5.30;2.72;;;;;;;22.39;26.66;101987.75;5049889;28;20025;-61
2023/06/03 11:05:46;;;;;;;3.08;2.45;;;;;;;22.23;26.10;101984.78;5050613;28;20034;-61
2023/06/03 11:08:12;;;;;;;5.25;2.53;;;;;;;22.52;25.17;101987.44;5067287;28;20036;-63
2023/06/03 11:10:41;;;;;;;3.22;2.20;;;;;;;22.42;24.36;101984.75;5049807;28;20116;-64
2023/06/03 11:13:08;;;;;;;9.52;2.22;;;;;;;22.39;24.73;101984.22;5050379;28;20033;-62
2023/06/03 11:16:04;;;;;;;6.18;2.17;;;;;;;22.55;25.44;101994.44;5050319;28;20090;-61
2023/06/03 11:18:30;;;;;;;2.67;2.47;;;;;;;22.33;24.85;101987.50;5049609;28;20045;-61
2023/06/03 11:20:57;;;;;;;7.13;1.80;;;;;;;22.57;23.88;101990.56;5064619;28;20028;-61
2023/06/03 11:23:47;;;;;;;8.90;2.30;;;;;;;22.67;24.45;101988.66;5065545;28;20112;-60
2023/06/03 11:26:32;;;;;;;3.65;2.00;;;;;;;22.64;25.16;101985.41;5029771;28;20026;-61